createdAt,value
2023-03-04T00:01:48.754Z,59.99
2023-03-04T00:04:53.307Z,60.12
2023-03-04T00:07:59.618Z,60.43
2023-03-04T00:11:04.158Z,60.32
2023-03-04T00:14:10.508Z,60.27
2023-03-04T00:17:15.461Z,60.05
2023-03-04T00:20:22.074Z,60.21
2023-03-04T00:23:28.375Z,60.28
2023-03-04T00:26:32.968Z,60.41
2023-03-04T00:29:39.483Z,60.89
2023-03-04T00:32:45.842Z,60.89
2023-03-04T00:35:52.418Z,61.11
2023-03-04T00:38:58.765Z,61.10
2023-03-04T00:42:03.265Z,60.94
2023-03-04T00:45:11.467Z,61.02
2023-03-04T00:48:17.923Z,61.09
2023-03-04T00:51:24.234Z,61.06
2023-03-04T00:54:28.795Z,61.05
2023-03-04T00:57:35.122Z,61.13
2023-03-04T01:00:39.720Z,60.97
2023-03-04T01:03:45.960Z,61.12
2023-03-04T01:06:52.325Z,60.99
2023-03-04T01:09:58.576Z,60.89
2023-03-04T01:13:04.772Z,60.73
2023-03-04T01:16:13.056Z,60.66
2023-03-04T01:19:19.645Z,60.53
2023-03-04T01:22:26.033Z,60.58
2023-03-04T01:25:30.680Z,60.68
2023-03-04T01:28:37.005Z,60.82
2023-03-04T01:31:41.601Z,60.92
2023-03-04T01:34:47.790Z,61.13
2023-03-04T01:37:53.990Z,61.20
2023-03-04T01:41:00.349Z,61.31
2023-03-04T01:44:07.252Z,61.38
2023-03-04T01:47:13.533Z,61.54
2023-03-04T01:50:22.124Z,61.65
2023-03-04T01:53:29.416Z,61.78
2023-03-04T01:56:38.981Z,61.70
2023-03-04T01:59:45.797Z,61.77
2023-03-04T02:02:55.133Z,61.84
2023-03-04T02:06:01.382Z,61.83
2023-03-04T02:09:08.062Z,61.58
2023-03-04T02:12:14.256Z,61.50
2023-03-04T02:15:20.941Z,61.17
2023-03-04T02:18:27.556Z,61.17
2023-03-04T02:21:35.344Z,60.90
2023-03-04T02:24:45.363Z,60.52
2023-03-04T02:27:51.887Z,60.21
2023-03-04T02:30:58.090Z,60.10
2023-03-04T02:34:03.860Z,60.03
2023-03-04T02:37:13.562Z,60.13
2023-03-04T02:40:25.877Z,60.20
2023-03-04T02:43:32.069Z,60.26
2023-03-04T02:46:38.345Z,60.03
2023-03-04T02:49:44.950Z,60.56
2023-03-04T02:52:51.106Z,60.37
2023-03-04T02:55:57.495Z,60.14
2023-03-04T02:59:03.650Z,59.85
2023-03-04T03:02:10.949Z,60.10
2023-03-04T03:05:17.996Z,59.81
2023-03-04T03:08:24.377Z,60.01
2023-03-04T03:11:28.915Z,59.84
2023-03-04T03:14:35.217Z,60.03
2023-03-04T03:17:39.745Z,59.64
2023-03-04T03:20:45.955Z,59.95
2023-03-04T03:23:52.257Z,60.18
2023-03-04T03:26:56.757Z,59.81
2023-03-04T03:30:03.227Z,59.76
2023-03-04T03:33:09.496Z,59.76
2023-03-04T03:36:15.623Z,59.83
2023-03-04T03:39:22.350Z,60.56
2023-03-04T03:42:28.764Z,59.70
2023-03-04T03:45:34.882Z,58.55
2023-03-04T03:48:41.180Z,58.03
2023-03-04T03:51:45.959Z,59.33
2023-03-04T03:54:52.089Z,59.98
2023-03-04T03:57:58.270Z,61.49
2023-03-04T04:01:04.285Z,64.07
2023-03-04T04:04:10.496Z,65.96
2023-03-04T04:07:16.863Z,65.85
2023-03-04T04:10:23.378Z,65.20
2023-03-04T04:13:29.725Z,64.86
2023-03-04T04:16:34.252Z,65.06
2023-03-04T04:19:41.270Z,65.42
2023-03-04T04:22:47.576Z,65.20
2023-03-04T04:25:52.085Z,63.80
2023-03-04T04:28:58.328Z,63.25
2023-03-04T04:32:02.940Z,62.81
2023-03-04T04:35:10.945Z,62.64
2023-03-04T04:38:17.213Z,62.19
2023-03-04T04:41:22.983Z,61.80
2023-03-04T04:44:29.240Z,61.69
2023-03-04T04:47:33.784Z,61.65
2023-03-04T04:50:39.966Z,61.92
2023-03-04T04:53:46.187Z,61.90
2023-03-04T04:56:52.349Z,62.28
2023-03-04T04:59:58.553Z,62.42
2023-03-04T05:03:04.909Z,62.40
2023-03-04T05:06:12.884Z,62.48
2023-03-04T05:09:20.932Z,63.22
2023-03-04T05:12:27.146Z,63.00
2023-03-04T05:15:33.752Z,63.34
2023-03-04T05:18:41.448Z,63.16
2023-03-04T05:21:47.746Z,63.62
2023-03-04T05:24:52.236Z,64.14
2023-03-04T05:27:58.407Z,64.01
2023-03-04T05:31:05.066Z,64.61
2023-03-04T05:34:11.378Z,64.57
2023-03-04T05:37:15.887Z,63.00
2023-03-04T05:40:24.250Z,62.36
2023-03-04T05:43:32.084Z,62.77
2023-03-04T05:46:38.250Z,62.89
2023-03-04T05:49:42.899Z,63.84
2023-03-04T05:52:49.115Z,64.69
2023-03-04T05:55:55.864Z,64.70
2023-03-04T05:59:02.115Z,64.49
2023-03-04T06:02:06.617Z,64.98
2023-03-04T06:05:16.454Z,65.17
2023-03-04T06:08:22.973Z,65.71
2023-03-04T06:11:29.149Z,66.74
2023-03-04T06:14:35.330Z,67.53
2023-03-04T06:17:42.622Z,67.86
2023-03-04T06:20:48.934Z,68.10
2023-03-04T06:23:53.390Z,68.02
2023-03-04T06:26:59.668Z,68.33
2023-03-04T06:30:04.667Z,68.15
2023-03-04T06:33:10.948Z,68.20
2023-03-04T06:36:15.502Z,68.04
2023-03-04T06:39:21.882Z,68.18
2023-03-04T06:42:26.531Z,67.79
2023-03-04T06:45:32.772Z,67.62
2023-03-04T06:48:39.260Z,67.51
2023-03-04T06:51:45.551Z,67.21
2023-03-04T06:54:50.041Z,66.72
2023-03-04T06:57:56.305Z,66.97
2023-03-04T07:01:13.618Z,66.96
2023-03-04T07:04:19.931Z,66.72
2023-03-04T07:07:26.189Z,66.32
2023-03-04T07:10:32.470Z,66.44
2023-03-04T07:13:38.521Z,66.28
2023-03-04T07:16:43.150Z,66.83
2023-03-04T07:19:49.438Z,66.73
2023-03-04T07:22:55.692Z,66.28
2023-03-04T07:26:00.612Z,66.20
2023-03-04T07:29:07.099Z,66.18
2023-03-04T07:32:13.553Z,65.91
2023-03-04T07:35:20.104Z,65.82
2023-03-04T07:38:26.661Z,65.54
2023-03-04T07:41:36.378Z,65.26
2023-03-04T07:44:42.651Z,64.76
2023-03-04T07:47:48.870Z,64.63
2023-03-04T07:51:05.964Z,64.60
2023-03-04T07:54:12.948Z,64.40
2023-03-04T07:57:19.289Z,64.01
2023-03-04T08:00:24.507Z,64.20
2023-03-04T08:03:31.037Z,64.01
2023-03-04T08:06:37.717Z,63.83
2023-03-04T08:09:44.001Z,63.78
2023-03-04T08:12:50.276Z,63.89
2023-03-04T08:15:56.867Z,64.03
2023-03-04T08:19:05.142Z,63.92
2023-03-04T08:22:11.433Z,63.59
2023-03-04T08:25:15.940Z,63.43
2023-03-04T08:28:22.487Z,63.78
2023-03-04T08:31:29.178Z,63.58
2023-03-04T08:34:35.513Z,63.14
2023-03-04T08:37:41.834Z,62.50
2023-03-04T08:40:46.394Z,62.17
2023-03-04T08:43:52.604Z,62.32
2023-03-04T08:46:58.870Z,61.90
2023-03-04T08:50:05.471Z,61.96
2023-03-04T08:53:11.736Z,61.79
2023-03-04T08:56:18.660Z,61.56
2023-03-04T08:59:24.984Z,61.52
2023-03-04T09:02:29.532Z,61.32
2023-03-04T09:05:36.490Z,61.43
2023-03-04T09:08:42.960Z,61.28
2023-03-04T09:11:49.212Z,61.37
2023-03-04T09:15:09.866Z,61.57
2023-03-04T09:18:18.345Z,61.62
2023-03-04T09:21:24.695Z,62.22
2023-03-04T09:24:29.201Z,62.21
2023-03-04T09:27:35.599Z,62.24
2023-03-04T09:30:40.460Z,62.03
2023-03-04T09:33:46.644Z,62.03
2023-03-04T09:36:52.848Z,62.06
2023-03-04T09:39:59.206Z,61.81
2023-03-04T09:43:05.407Z,62.00
2023-03-04T09:46:16.060Z,61.98
2023-03-04T09:49:23.473Z,61.34
2023-03-04T09:52:44.271Z,61.94
2023-03-04T09:55:53.412Z,61.38
2023-03-04T09:59:07.481Z,60.76
2023-03-04T10:02:25.305Z,60.41
2023-03-04T10:05:33.765Z,58.93
2023-03-04T10:08:45.600Z,58.52
2023-03-04T10:11:59.790Z,59.66
2023-03-04T10:15:15.641Z,62.61
2023-03-04T10:18:25.371Z,62.93
2023-03-04T10:21:38.361Z,62.12
2023-03-04T10:24:47.220Z,61.63
2023-03-04T10:27:56.562Z,61.11
2023-03-04T10:31:10.921Z,60.06
2023-03-04T10:34:18.654Z,60.30
2023-03-04T10:37:24.914Z,59.74
2023-03-04T10:40:38.312Z,58.27
2023-03-04T10:43:46.850Z,59.00
2023-03-04T10:46:55.055Z,60.32
2023-03-04T10:50:03.065Z,60.45
2023-03-04T10:53:21.417Z,63.40
2023-03-04T10:56:37.807Z,64.12
2023-03-04T10:59:50.574Z,63.22
2023-03-04T11:03:30.563Z,62.50
2023-03-04T11:06:43.430Z,61.37
2023-03-04T11:09:49.982Z,60.96
2023-03-04T11:13:01.361Z,60.47
2023-03-04T11:16:25.114Z,60.21
2023-03-04T11:19:38.641Z,60.02
2023-03-04T11:22:46.985Z,59.54
2023-03-04T11:25:59.444Z,58.59
2023-03-04T11:29:15.141Z,58.14
2023-03-04T11:32:28.937Z,58.66
2023-03-04T11:35:40.942Z,60.28
2023-03-04T11:38:51.390Z,62.79
2023-03-04T11:42:02.249Z,63.49
2023-03-04T11:45:27.820Z,62.62
2023-03-04T11:48:44.060Z,62.01
2023-03-04T11:51:58.955Z,61.17
2023-03-04T11:55:23.630Z,60.78
2023-03-04T11:58:46.667Z,60.26
2023-03-04T12:02:04.487Z,59.95
2023-03-04T12:05:35.337Z,58.47
2023-03-04T12:08:54.238Z,58.04
2023-03-04T12:12:16.231Z,58.77
2023-03-04T12:15:30.006Z,59.34
2023-03-04T12:18:53.899Z,60.13
2023-03-04T12:22:23.167Z,62.41
2023-03-04T12:25:45.606Z,63.77
2023-03-04T12:28:58.551Z,62.86
2023-03-04T12:32:13.006Z,62.00
2023-03-04T12:35:34.738Z,60.99
2023-03-04T12:39:11.070Z,60.68
2023-03-04T12:42:30.362Z,59.91
2023-03-04T12:45:48.386Z,58.35
2023-03-04T12:49:11.089Z,58.09
2023-03-04T12:52:25.036Z,59.08
2023-03-04T12:55:38.144Z,59.43
2023-03-04T12:58:44.540Z,60.28
2023-03-04T13:01:52.522Z,60.60
2023-03-04T13:05:05.448Z,59.76
2023-03-04T13:08:21.509Z,63.37
2023-03-04T13:11:44.053Z,64.37
2023-03-04T13:15:35.080Z,63.65
2023-03-04T13:18:41.700Z,62.66
2023-03-04T13:21:55.150Z,61.49
2023-03-04T13:25:04.065Z,60.82
2023-03-04T13:28:22.612Z,60.05
2023-03-04T13:31:29.771Z,59.55
2023-03-04T13:34:55.074Z,57.96
2023-03-04T13:38:04.632Z,58.01
2023-03-04T13:41:22.229Z,59.09
2023-03-04T13:45:01.802Z,59.98
2023-03-04T13:48:24.992Z,60.67
2023-03-04T13:51:33.981Z,62.83
2023-03-04T13:54:40.213Z,64.17
2023-03-04T13:57:52.905Z,63.44
2023-03-04T14:00:59.264Z,62.72
2023-03-04T14:04:11.913Z,61.81
2023-03-04T14:07:28.299Z,61.39
2023-03-04T14:10:34.660Z,60.52
2023-03-04T14:13:39.253Z,59.97
2023-03-04T14:16:50.718Z,59.82
2023-03-04T14:19:56.952Z,58.08
2023-03-04T14:23:02.959Z,57.77
2023-03-04T14:26:11.880Z,57.80
2023-03-04T14:29:29.438Z,59.93
2023-03-04T14:32:35.987Z,60.72
2023-03-04T14:35:47.521Z,61.56
2023-03-04T14:38:58.905Z,63.51
2023-03-04T14:42:11.991Z,64.05
2023-03-04T14:45:19.450Z,63.00
2023-03-04T14:48:29.541Z,62.50
2023-03-04T14:51:42.752Z,61.38
2023-03-04T14:55:03.466Z,61.08
2023-03-04T14:58:23.928Z,60.57
2023-03-04T15:01:36.142Z,59.84
2023-03-04T15:04:43.343Z,59.76
2023-03-04T15:07:55.801Z,59.83
2023-03-04T15:11:04.107Z,58.75
2023-03-04T15:14:44.557Z,57.83
2023-03-04T15:18:01.680Z,58.50
2023-03-04T15:21:29.344Z,59.60
2023-03-04T15:24:35.598Z,60.72
2023-03-04T15:27:42.289Z,63.11
2023-03-04T15:30:48.755Z,63.84
2023-03-04T15:33:55.322Z,62.99
2023-03-04T15:37:02.717Z,62.16
2023-03-04T15:40:20.037Z,61.23
2023-03-04T15:43:26.832Z,60.52
2023-03-04T15:46:33.124Z,59.83
2023-03-04T15:49:37.812Z,58.28
2023-03-04T15:52:44.460Z,57.34
2023-03-04T15:55:50.895Z,58.86
2023-03-04T15:59:00.153Z,60.37
2023-03-04T16:02:07.293Z,60.27
2023-03-04T16:05:15.698Z,61.02
2023-03-04T16:08:25.075Z,62.72
2023-03-04T16:11:33.833Z,63.96
2023-03-04T16:14:40.161Z,62.81
2023-03-04T16:17:46.626Z,62.04
2023-03-04T16:20:53.613Z,60.58
2023-03-04T16:24:00.250Z,59.91
2023-03-04T16:27:07.518Z,58.09
2023-03-04T16:30:17.568Z,57.36
2023-03-04T16:33:23.888Z,57.94
2023-03-04T16:36:29.188Z,58.97
2023-03-04T16:39:35.776Z,58.18
2023-03-04T16:42:42.143Z,59.76
2023-03-04T16:45:46.696Z,60.47
2023-03-04T16:48:52.845Z,61.33
2023-03-04T16:51:59.113Z,63.22
2023-03-04T16:55:05.795Z,62.78
2023-03-04T16:58:13.761Z,61.76
2023-03-04T17:01:22.238Z,60.63
2023-03-04T17:04:29.392Z,59.53
2023-03-04T17:07:36.883Z,58.29
2023-03-04T17:10:43.733Z,57.81
2023-03-04T17:13:50.887Z,58.41
2023-03-04T17:16:56.989Z,58.94
2023-03-04T17:20:06.332Z,59.32
2023-03-04T17:23:12.636Z,59.95
2023-03-04T17:26:20.935Z,60.43
2023-03-04T17:29:27.192Z,60.48
2023-03-04T17:32:33.836Z,62.86
2023-03-04T17:35:41.325Z,63.75
2023-03-04T17:38:47.897Z,62.77
2023-03-04T17:41:54.615Z,61.37
2023-03-04T17:45:00.887Z,60.30
2023-03-04T17:48:08.319Z,59.85
2023-03-04T17:51:15.052Z,58.23
2023-03-04T17:54:21.485Z,58.03
2023-03-04T17:57:27.641Z,58.80
2023-03-04T18:00:33.857Z,58.98
2023-03-04T18:03:40.070Z,60.19
2023-03-04T18:06:46.501Z,62.07
2023-03-04T18:09:52.684Z,62.66
2023-03-04T18:12:58.890Z,61.97
2023-03-04T18:16:05.877Z,61.02
2023-03-04T18:19:12.494Z,60.11
2023-03-04T18:22:18.771Z,58.64
2023-03-04T18:25:25.033Z,58.28
2023-03-04T18:28:29.519Z,58.61
2023-03-04T18:31:36.908Z,57.98
2023-03-04T18:34:43.276Z,60.01
2023-03-04T18:37:49.989Z,60.27
2023-03-04T18:41:01.204Z,61.36
2023-03-04T18:44:09.957Z,63.25
2023-03-04T18:47:16.546Z,63.64
2023-03-04T18:50:23.481Z,62.61
2023-03-04T18:53:31.086Z,62.13
2023-03-04T18:56:41.755Z,60.78
2023-03-04T18:59:51.771Z,60.08
2023-03-04T19:03:01.538Z,58.56
2023-03-04T19:06:08.903Z,58.91
2023-03-04T19:09:15.490Z,59.65
2023-03-04T19:12:21.770Z,61.18
2023-03-04T19:15:28.937Z,62.47
2023-03-04T19:18:35.318Z,63.35
2023-03-04T19:21:40.305Z,62.62
2023-03-04T19:24:46.590Z,62.16
2023-03-04T19:27:55.479Z,61.26
2023-03-04T19:31:05.761Z,60.69
2023-03-04T19:34:12.063Z,60.23
2023-03-04T19:37:18.526Z,59.65
2023-03-04T19:40:27.977Z,58.46
2023-03-04T19:43:37.074Z,58.46
2023-03-04T19:46:43.422Z,58.90
2023-03-04T19:49:48.144Z,60.06
2023-03-04T19:52:54.386Z,60.11
2023-03-04T19:56:00.665Z,62.81
2023-03-04T19:59:06.779Z,63.70
2023-03-04T20:02:13.052Z,62.95
2023-03-04T20:05:19.602Z,62.32
2023-03-04T20:08:25.762Z,61.43
2023-03-04T20:11:32.510Z,60.90
2023-03-04T20:14:39.345Z,60.60
2023-03-04T20:17:45.644Z,60.22
2023-03-04T20:20:51.937Z,60.04
2023-03-04T20:23:58.346Z,59.95
2023-03-04T20:27:03.232Z,58.17
2023-03-04T20:30:11.680Z,57.51
2023-03-04T20:33:18.994Z,58.17
2023-03-04T20:36:26.626Z,59.29
2023-03-04T20:39:32.911Z,60.01
2023-03-04T20:42:39.229Z,61.20
2023-03-04T20:45:43.797Z,63.22
2023-03-04T20:48:50.028Z,64.74
2023-03-04T20:52:00.385Z,63.61
2023-03-04T20:55:07.533Z,62.83
2023-03-04T20:58:13.819Z,62.03
2023-03-04T21:01:20.265Z,61.23
2023-03-04T21:04:26.728Z,60.93
2023-03-04T21:07:33.068Z,60.58
2023-03-04T21:10:40.127Z,60.27
2023-03-04T21:13:46.623Z,59.91
2023-03-04T21:16:54.571Z,59.72
2023-03-04T21:20:00.838Z,58.61
2023-03-04T21:23:07.123Z,58.10
2023-03-04T21:26:13.454Z,58.92
2023-03-04T21:29:18.731Z,61.22
2023-03-04T21:32:28.914Z,63.78
2023-03-04T21:35:37.126Z,63.44
2023-03-04T21:38:44.523Z,63.28
2023-03-04T21:41:50.789Z,63.10
2023-03-04T21:44:57.051Z,62.50
2023-03-04T21:48:03.266Z,61.77
2023-03-04T21:51:13.499Z,59.81
2023-03-04T21:54:19.955Z,58.43
2023-03-04T21:57:26.233Z,59.52
2023-03-04T22:00:32.685Z,61.10
2023-03-04T22:03:39.003Z,62.84
2023-03-04T22:06:43.512Z,63.79
2023-03-04T22:09:50.005Z,63.90
2023-03-04T22:12:56.188Z,62.64
2023-03-04T22:16:03.084Z,61.82
2023-03-04T22:19:09.361Z,61.69
2023-03-04T22:22:18.140Z,61.78
2023-03-04T22:25:24.468Z,61.89
2023-03-04T22:28:31.513Z,61.74
2023-03-04T22:31:39.137Z,60.96
2023-03-04T22:34:46.024Z,61.10
2023-03-04T22:37:52.284Z,60.98
2023-03-04T22:40:58.512Z,60.77
2023-03-04T22:44:06.285Z,60.93
2023-03-04T22:47:12.539Z,60.13
2023-03-04T22:50:18.947Z,60.69
2023-03-04T22:53:26.209Z,60.32
2023-03-04T22:56:33.073Z,59.51
2023-03-04T22:59:39.331Z,57.81
2023-03-04T23:02:45.981Z,57.28
2023-03-04T23:06:00.995Z,58.39
2023-03-04T23:09:07.732Z,58.79
2023-03-04T23:12:14.142Z,59.70
2023-03-04T23:15:19.567Z,60.31
2023-03-04T23:18:25.861Z,59.28
2023-03-04T23:21:33.814Z,62.82
2023-03-04T23:24:40.024Z,65.02
2023-03-04T23:27:46.380Z,63.96
2023-03-04T23:30:51.076Z,62.67
2023-03-04T23:33:57.978Z,62.36
2023-03-04T23:37:04.300Z,61.42
2023-03-04T23:40:10.286Z,60.57
2023-03-04T23:43:14.722Z,60.16
2023-03-04T23:46:20.946Z,59.58
2023-03-04T23:49:27.126Z,57.82
2023-03-04T23:52:33.601Z,57.24
2023-03-04T23:55:39.816Z,58.17
2023-03-04T23:58:46.515Z,58.77
